Time;durP1;ratioP1;P1;durP2;ratioP2;P2;SDS_P1;SDS_P2;PMS_P1;PMS_P2;Temp;Humidity;BMP_temperature;BMP_pressure;BME280_temperature;BME280_humidity;BME280_pressure;Samples;Min_cycle;Max_cycle;Signal;HPM_P1;HPM_P2
2022/09/25 00:00:23;;;;;;;;;;;11.10;99.90;;;;;;5071646;28;20370;-62
2022/09/25 00:02:48;;;;;;;;;;;11.20;99.90;;;;;;5066239;28;20002;-62
2022/09/25 00:05:14;;;;;;;;;;;11.20;99.90;;;;;;5071148;28;20006;-61
2022/09/25 00:07:40;;;;;;;;;;;11.20;99.90;;;;;;5069816;28;20369;-62
2022/09/25 00:10:06;;;;;;;;;;;11.20;99.90;;;;;;5075139;28;19916;-61
2022/09/25 00:12:32;;;;;;;;;;;11.10;99.90;;;;;;5070968;28;19920;-61
2022/09/25 00:14:58;;;;;;;;;;;11.20;99.90;;;;;;5065626;28;20384;-61
2022/09/25 00:17:23;;;;;;;;;;;11.10;99.90;;;;;;5071900;28;19973;-62
2022/09/25 00:19:49;;;;;;;;;;;11.10;99.90;;;;;;5072996;28;20351;-62
2022/09/25 00:22:18;;;;;;;;;;;11.00;99.90;;;;;;5070477;28;20358;-60
2022/09/25 00:24:44;;;;;;;;;;;10.90;99.90;;;;;;5072205;28;19913;-62
2022/09/25 00:27:10;;;;;;;;;;;10.80;99.90;;;;;;5069086;28;20350;-63
2022/09/25 00:29:36;;;;;;;;;;;10.70;99.90;;;;;;5070951;28;19913;-62
2022/09/25 00:32:03;;;;;;;;;;;10.70;99.90;;;;;;5074263;28;19958;-62
2022/09/25 00:34:28;;;;;;;;;;;10.70;99.90;;;;;;5071266;28;19913;-61
2022/09/25 00:36:54;;;;;;;;;;;10.60;99.90;;;;;;5071779;28;19921;-61
2022/09/25 00:39:19;;;;;;;;;;;10.50;99.90;;;;;;5071362;28;19924;-62
2022/09/25 00:41:45;;;;;;;;;;;10.40;99.90;;;;;;5071142;28;19916;-62
2022/09/25 00:44:29;;;;;;;;;;;10.40;99.90;;;;;;5073194;28;19919;-62
2022/09/25 00:46:55;;;;;;;;;;;10.40;99.90;;;;;;5069432;28;19916;-60
2022/09/25 00:49:22;;;;;;;;;;;10.30;99.90;;;;;;5069976;28;20366;-62
2022/09/25 00:51:56;;;;;;;;;;;10.40;99.90;;;;;;5072894;28;20358;-61
2022/09/25 00:54:24;;;;;;;;;;;10.30;99.90;;;;;;5068375;28;19920;-60
2022/09/25 00:56:51;;;;;;;;;;;10.20;99.90;;;;;;5070931;28;20009;-62
2022/09/25 00:59:37;;;;;;;;;;;10.20;99.90;;;;;;5070890;28;19940;-62
2022/09/25 01:02:02;;;;;;;;;;;10.20;99.90;;;;;;5066168;28;19920;-59
2022/09/25 01:04:29;;;;;;;;;;;10.20;99.90;;;;;;5069316;28;19920;-60
2022/09/25 01:06:56;;;;;;;;;;;10.20;99.90;;;;;;5070404;28;19916;-62
2022/09/25 01:09:22;;;;;;;;;;;10.10;99.90;;;;;;5073145;28;19913;-61
2022/09/25 01:11:47;;;;;;;;;;;10.10;99.90;;;;;;5072826;28;19920;-61
2022/09/25 01:14:16;;;;;;;;;;;10.10;99.90;;;;;;5062688;28;19913;-61
2022/09/25 01:17:20;;;;;;;;;;;10.00;99.90;;;;;;5071621;28;19981;-67
2022/09/25 01:19:58;;;;;;;;;;;10.00;99.90;;;;;;4979338;28;20375;-60
2022/09/25 01:22:32;;;;;;;;;;;10.00;99.90;;;;;;4972321;28;19914;-61
2022/09/25 01:25:10;;;;;;;;;;;10.00;99.90;;;;;;5040988;28;19958;-60
2022/09/25 01:27:48;;;;;;;;;;;10.00;99.90;;;;;;5072529;28;19912;-61
2022/09/25 01:30:17;;;;;;;;;;;9.90;99.90;;;;;;5070968;28;19913;-62
2022/09/25 01:32:42;;;;;;;;;;;9.90;99.90;;;;;;5072079;28;20450;-60
2022/09/25 01:35:26;;;;;;;;;;;10.00;99.90;;;;;;5074308;28;19917;-61
2022/09/25 01:37:54;;;;;;;;;;;10.20;99.90;;;;;;5074876;28;19916;-61
2022/09/25 01:40:20;;;;;;;;;;;10.30;99.90;;;;;;5071466;28;20366;-62
2022/09/25 01:42:54;;;;;;;;;;;10.10;99.90;;;;;;5070848;28;19912;-62
2022/09/25 01:45:27;;;;;;;;;;;10.00;99.90;;;;;;5071548;28;19928;-61
2022/09/25 01:47:55;;;;;;;;;;;10.00;99.90;;;;;;5068796;28;19958;-60
2022/09/25 01:50:26;;;;;;;;;;;10.00;99.90;;;;;;5071429;28;19967;-61
2022/09/25 01:52:53;;;;;;;;;;;9.90;99.90;;;;;;5070063;28;19966;-62
2022/09/25 01:55:23;;;;;;;;;;;9.90;99.90;;;;;;5060086;28;20011;-61
2022/09/25 01:58:04;;;;;;;;;;;9.90;99.90;;;;;;5065485;28;19963;-61
2022/09/25 02:00:30;;;;;;;;;;;9.90;99.90;;;;;;5069863;28;20340;-61
2022/09/25 02:02:58;;;;;;;;;;;9.80;99.90;;;;;;5061137;28;20012;-61
2022/09/25 02:05:26;;;;;;;;;;;9.80;99.90;;;;;;5065958;28;19923;-61
2022/09/25 02:08:04;;;;;;;;;;;9.80;99.90;;;;;;5068412;28;19920;-61
2022/09/25 02:10:33;;;;;;;;;;;9.70;99.90;;;;;;5081199;28;20323;-61
2022/09/25 02:13:04;;;;;;;;;;;9.80;99.90;;;;;;5063063;28;19919;-60
2022/09/25 02:15:33;;;;;;;;;;;9.80;99.90;;;;;;5067790;28;19923;-62
2022/09/25 02:20:46;;;;;;;;;;;9.80;99.90;;;;;;5065967;28;19923;-62
2022/09/25 02:23:22;;;;;;;;;;;9.80;99.90;;;;;;5067487;28;19946;-61
2022/09/25 02:26:01;;;;;;;;;;;9.80;99.90;;;;;;5062547;28;20430;-62
2022/09/25 02:28:27;;;;;;;;;;;9.90;99.90;;;;;;5061996;28;20338;-63
2022/09/25 02:30:55;;;;;;;;;;;10.00;99.90;;;;;;5071091;28;19912;-61
2022/09/25 02:33:21;;;;;;;;;;;9.90;99.90;;;;;;5067821;28;20385;-62
2022/09/25 02:35:46;;;;;;;;;;;9.80;99.90;;;;;;5065274;28;19913;-61
2022/09/25 02:38:13;;;;;;;;;;;9.80;99.90;;;;;;5039525;28;20393;-61
2022/09/25 02:40:59;;;;;;;;;;;9.70;99.90;;;;;;5062568;28;19920;-60
2022/09/25 02:43:38;;;;;;;;;;;9.60;99.90;;;;;;5062215;28;19912;-61
2022/09/25 02:46:03;;;;;;;;;;;9.60;99.90;;;;;;5063171;28;19913;-61
2022/09/25 02:48:47;;;;;;;;;;;9.70;99.90;;;;;;5065908;28;19920;-61
2022/09/25 02:51:19;;;;;;;;;;;9.80;99.90;;;;;;5061411;28;20410;-63
2022/09/25 02:53:54;;;;;;;;;;;9.70;99.90;;;;;;5065685;28;19913;-63
2022/09/25 02:56:25;;;;;;;;;;;9.60;99.90;;;;;;5068971;28;19948;-63
2022/09/25 02:58:55;;;;;;;;;;;9.50;99.90;;;;;;5069349;28;19942;-61
2022/09/25 03:01:23;;;;;;;;;;;9.40;99.90;;;;;;5065232;28;19924;-62
2022/09/25 03:03:50;;;;;;;;;;;9.30;99.90;;;;;;5069833;28;19919;-61
2022/09/25 03:06:16;;;;;;;;;;;9.30;99.90;;;;;;5068561;28;19913;-63
2022/09/25 03:08:45;;;;;;;;;;;9.30;99.90;;;;;;5072990;28;19912;-61
2022/09/25 03:11:12;;;;;;;;;;;9.30;99.90;;;;;;5069670;28;19909;-61
2022/09/25 03:13:38;;;;;;;;;;;9.20;99.90;;;;;;5066235;28;19913;-62
2022/09/25 03:16:10;;;;;;;;;;;9.20;99.90;;;;;;5068047;28;19947;-62
2022/09/25 03:18:36;;;;;;;;;;;9.30;99.90;;;;;;5073106;28;20606;-63
2022/09/25 03:21:03;;;;;;;;;;;9.30;99.90;;;;;;5067368;28;19909;-61
2022/09/25 03:23:28;;;;;;;;;;;9.30;99.90;;;;;;5069885;28;19913;-61
2022/09/25 03:25:54;;;;;;;;;;;9.50;99.90;;;;;;5068437;28;19908;-62
2022/09/25 03:28:20;;;;;;;;;;;9.40;99.90;;;;;;5064013;28;19912;-64
2022/09/25 03:31:01;;;;;;;;;;;9.30;99.90;;;;;;5065157;28;19913;-64
2022/09/25 03:33:28;;;;;;;;;;;9.20;99.90;;;;;;5059204;28;20374;-61
2022/09/25 03:36:19;;;;;;;;;;;9.20;99.90;;;;;;5061155;28;19970;-62
2022/09/25 03:38:47;;;;;;;;;;;9.20;99.90;;;;;;5058026;28;19929;-62
2022/09/25 03:41:14;;;;;;;;;;;9.10;99.90;;;;;;5067862;28;19923;-62
2022/09/25 03:43:41;;;;;;;;;;;9.10;99.90;;;;;;5066038;28;20362;-63
2022/09/25 03:46:07;;;;;;;;;;;9.10;99.90;;;;;;5063813;28;20401;-60
2022/09/25 03:48:33;;;;;;;;;;;9.10;99.90;;;;;;5070080;28;19935;-63
2022/09/25 03:50:59;;;;;;;;;;;9.10;99.90;;;;;;5069022;28;20346;-62
2022/09/25 03:53:25;;;;;;;;;;;9.10;99.90;;;;;;5061797;28;20361;-61
2022/09/25 03:55:51;;;;;;;;;;;9.10;99.90;;;;;;5065180;28;19920;-61
2022/09/25 03:58:16;;;;;;;;;;;9.20;99.90;;;;;;5072220;28;19923;-63
2022/09/25 04:00:44;;;;;;;;;;;9.30;99.90;;;;;;5070862;28;19924;-61
2022/09/25 04:03:10;;;;;;;;;;;9.50;99.90;;;;;;5068369;28;19920;-61
2022/09/25 04:05:36;;;;;;;;;;;9.50;99.90;;;;;;5070446;28;19918;-63
2022/09/25 04:08:01;;;;;;;;;;;9.40;99.90;;;;;;5064540;28;20354;-62
2022/09/25 04:10:27;;;;;;;;;;;9.30;99.90;;;;;;5067635;28;19916;-62
2022/09/25 04:12:53;;;;;;;;;;;9.30;99.90;;;;;;5062991;28;19913;-60
2022/09/25 04:15:24;;;;;;;;;;;9.10;99.90;;;;;;5067406;28;19918;-60
2022/09/25 04:17:51;;;;;;;;;;;9.00;99.90;;;;;;5071001;28;19971;-62
2022/09/25 04:20:17;;;;;;;;;;;9.00;99.90;;;;;;5068818;28;19959;-61
2022/09/25 04:22:42;;;;;;;;;;;9.10;99.90;;;;;;5071652;28;20366;-61
2022/09/25 04:25:08;;;;;;;;;;;9.20;99.90;;;;;;5072081;28;20273;-61
2022/09/25 04:27:35;;;;;;;;;;;9.30;99.90;;;;;;5072469;28;20002;-62
2022/09/25 04:30:02;;;;;;;;;;;9.30;99.90;;;;;;5070114;28;19919;-61
2022/09/25 04:35:12;;;;;;;;;;;9.10;99.90;;;;;;5072348;28;19919;-61
2022/09/25 04:37:37;;;;;;;;;;;9.00;99.90;;;;;;5071898;28;19909;-62
2022/09/25 04:40:03;;;;;;;;;;;8.90;99.90;;;;;;5069158;28;19920;-62
2022/09/25 04:42:29;;;;;;;;;;;8.80;99.90;;;;;;5067865;28;20013;-61
2022/09/25 04:44:55;;;;;;;;;;;8.90;99.90;;;;;;5070561;28;19913;-63
2022/09/25 04:47:21;;;;;;;;;;;8.90;99.90;;;;;;5065856;28;19916;-62
2022/09/25 04:49:47;;;;;;;;;;;8.90;99.90;;;;;;5067019;28;19913;-62
2022/09/25 04:52:13;;;;;;;;;;;8.90;99.90;;;;;;5067846;28;19913;-61
2022/09/25 04:54:39;;;;;;;;;;;9.00;99.90;;;;;;5069644;28;19927;-63
2022/09/25 04:57:06;;;;;;;;;;;9.00;99.90;;;;;;5070680;28;20396;-62
2022/09/25 04:59:32;;;;;;;;;;;9.00;99.90;;;;;;5070835;28;20270;-61
2022/09/25 05:01:57;;;;;;;;;;;9.00;99.90;;;;;;5065335;28;19919;-63
2022/09/25 05:04:23;;;;;;;;;;;9.00;99.90;;;;;;5065129;28;20400;-63
2022/09/25 05:06:50;;;;;;;;;;;9.00;99.90;;;;;;5071054;28;20963;-61
2022/09/25 05:09:15;;;;;;;;;;;9.00;99.90;;;;;;5068815;28;19913;-62
2022/09/25 05:11:41;;;;;;;;;;;8.90;99.90;;;;;;5067279;28;19912;-62
2022/09/25 05:14:07;;;;;;;;;;;9.00;99.90;;;;;;5067242;28;19983;-62
2022/09/25 05:16:33;;;;;;;;;;;9.00;99.90;;;;;;5068558;28;19920;-62
2022/09/25 05:18:59;;;;;;;;;;;9.00;99.90;;;;;;5068474;28;19942;-62
2022/09/25 05:21:24;;;;;;;;;;;8.90;99.90;;;;;;5065821;28;19923;-61
2022/09/25 05:23:50;;;;;;;;;;;9.00;99.90;;;;;;5070623;28;19912;-62
2022/09/25 05:26:16;;;;;;;;;;;8.90;99.90;;;;;;5068449;28;19935;-63
2022/09/25 05:28:41;;;;;;;;;;;8.90;99.90;;;;;;5066265;28;19917;-60
2022/09/25 05:31:08;;;;;;;;;;;9.00;99.90;;;;;;5069207;28;20362;-63
2022/09/25 05:33:34;;;;;;;;;;;9.00;99.90;;;;;;5065578;28;19917;-62
2022/09/25 05:36:09;;;;;;;;;;;9.00;99.90;;;;;;5072758;28;19919;-60
2022/09/25 05:38:35;;;;;;;;;;;9.00;99.90;;;;;;5066980;28;19913;-62
2022/09/25 05:41:03;;;;;;;;;;;9.00;99.90;;;;;;5069914;28;19973;-62
2022/09/25 05:43:29;;;;;;;;;;;8.90;99.90;;;;;;5062481;28;20006;-61
2022/09/25 05:45:55;;;;;;;;;;;8.90;99.90;;;;;;5069082;28;20081;-63
2022/09/25 05:48:21;;;;;;;;;;;9.00;99.90;;;;;;5068045;28;20321;-63
2022/09/25 05:50:50;;;;;;;;;;;8.90;99.90;;;;;;5068994;28;19935;-62
2022/09/25 05:53:15;;;;;;;;;;;8.90;99.90;;;;;;5067152;28;19922;-61
2022/09/25 05:55:41;;;;;;;;;;;8.80;99.90;;;;;;5067311;28;19916;-60
2022/09/25 05:58:06;;;;;;;;;;;8.90;99.90;;;;;;5068372;28;20053;-62
2022/09/25 06:00:32;;;;;;;;;;;8.80;99.90;;;;;;5070105;28;20023;-62
2022/09/25 06:02:58;;;;;;;;;;;8.80;99.90;;;;;;5065934;28;19916;-61
2022/09/25 06:05:24;;;;;;;;;;;8.80;99.90;;;;;;5067349;28;19934;-61
2022/09/25 06:07:53;;;;;;;;;;;8.70;99.90;;;;;;5068533;28;19920;-61
2022/09/25 06:10:19;;;;;;;;;;;8.80;99.90;;;;;;5065524;28;19912;-61
2022/09/25 06:12:44;;;;;;;;;;;8.80;99.90;;;;;;5068637;28;20007;-62
2022/09/25 06:15:10;;;;;;;;;;;8.80;99.90;;;;;;5066939;28;19913;-64
2022/09/25 06:17:35;;;;;;;;;;;8.80;99.90;;;;;;5070242;28;19958;-61
2022/09/25 06:20:01;;;;;;;;;;;8.80;99.90;;;;;;5073352;28;20022;-62
2022/09/25 06:22:27;;;;;;;;;;;8.80;99.90;;;;;;5068665;28;20309;-61
2022/09/25 06:24:52;;;;;;;;;;;8.80;99.90;;;;;;5067077;28;20370;-63
2022/09/25 06:27:18;;;;;;;;;;;8.80;99.90;;;;;;5070842;28;19913;-62
2022/09/25 06:29:43;;;;;;;;;;;8.80;99.90;;;;;;5072296;28;20361;-61
2022/09/25 06:32:09;;;;;;;;;;;8.80;99.90;;;;;;5080826;28;19975;-60
2022/09/25 06:34:34;;;;;;;;;;;8.80;99.90;;;;;;5070454;28;20285;-62
2022/09/25 06:37:00;;;;;;;;;;;8.80;99.90;;;;;;5067433;28;19916;-61
2022/09/25 06:39:25;;;;;;;;;;;8.80;99.90;;;;;;5068649;28;20302;-62
2022/09/25 06:41:52;;;;;;;;;;;8.80;99.90;;;;;;5064325;28;19912;-62
2022/09/25 06:44:19;;;;;;;;;;;8.80;99.90;;;;;;5072108;28;19916;-62
2022/09/25 06:46:47;;;;;;;;;;;8.90;99.90;;;;;;5072447;28;19920;-62
2022/09/25 06:49:13;;;;;;;;;;;8.90;99.90;;;;;;5068758;28;19912;-62
2022/09/25 06:51:39;;;;;;;;;;;8.90;99.90;;;;;;5069179;28;19913;-63
2022/09/25 06:54:05;;;;;;;;;;;8.80;99.90;;;;;;5092197;28;19908;-63
2022/09/25 06:56:31;;;;;;;;;;;8.90;99.90;;;;;;5090357;28;19976;-62
2022/09/25 06:58:56;;;;;;;;;;;8.90;99.90;;;;;;5092182;28;19947;-62
2022/09/25 07:01:22;;;;;;;;;;;9.00;99.90;;;;;;5093101;28;19900;-63
2022/09/25 07:03:48;;;;;;;;;;;9.00;99.90;;;;;;5096016;27;19944;-63
2022/09/25 07:06:15;;;;;;;;;;;9.00;99.90;;;;;;5090055;28;19977;-62
2022/09/25 07:08:42;;;;;;;;;;;9.00;99.90;;;;;;5091990;28;20010;-62
2022/09/25 07:11:12;;;;;;;;;;;9.10;99.90;;;;;;5096490;27;19912;-63
2022/09/25 07:13:39;;;;;;;;;;;9.10;99.90;;;;;;5089597;28;19934;-63
2022/09/25 07:16:06;;;;;;;;;;;9.20;99.90;;;;;;5084464;28;19904;-65
2022/09/25 07:18:32;;;;;;;;;;;9.20;99.90;;;;;;5080342;28;19951;-62
2022/09/25 07:21:02;;;;;;;;;;;9.20;99.90;;;;;;5088580;27;19912;-64
2022/09/25 07:23:29;;;;;;;;;;;9.30;99.90;;;;;;5085263;28;19940;-65
2022/09/25 07:25:57;;;;;;;;;;;9.40;99.90;;;;;;5096737;28;19913;-63
2022/09/25 07:28:22;;;;;;;;;;;9.50;99.90;;;;;;5094094;28;19916;-63
2022/09/25 07:30:48;;;;;;;;;;;9.50;99.90;;;;;;5095098;28;19971;-64
2022/09/25 07:33:14;;;;;;;;;;;9.60;99.90;;;;;;5090307;28;19923;-64
2022/09/25 07:35:39;;;;;;;;;;;9.70;99.90;;;;;;5093363;28;19925;-64
2022/09/25 07:38:05;;;;;;;;;;;9.70;99.90;;;;;;5090291;28;19912;-63
2022/09/25 07:40:32;;;;;;;;;;;9.80;99.90;;;;;;5080171;28;19928;-64
2022/09/25 07:43:01;;;;;;;;;;;9.80;99.90;;;;;;5085323;28;19920;-64
2022/09/25 07:45:27;;;;;;;;;;;9.90;99.90;;;;;;5088387;28;19919;-64
2022/09/25 07:47:59;;;;;;;;;;;9.90;99.90;;;;;;5090432;28;19975;-66
2022/09/25 07:50:25;;;;;;;;;;;9.90;99.90;;;;;;5078818;28;19912;-63
2022/09/25 07:52:51;;;;;;;;;;;9.90;99.90;;;;;;5085608;28;19923;-70
2022/09/25 07:55:17;;;;;;;;;;;10.00;99.90;;;;;;5091915;28;19992;-66
2022/09/25 07:57:43;;;;;;;;;;;10.00;99.90;;;;;;5093336;27;19929;-64
2022/09/25 08:00:09;;;;;;;;;;;10.10;99.90;;;;;;5090346;28;19978;-64
2022/09/25 08:02:34;;;;;;;;;;;10.10;99.90;;;;;;5096007;27;19904;-66
2022/09/25 08:05:00;;;;;;;;;;;10.20;99.90;;;;;;5090830;28;19919;-64
2022/09/25 08:07:29;;;;;;;;;;;10.20;99.90;;;;;;5093572;28;19924;-65
2022/09/25 08:09:54;;;;;;;;;;;10.20;99.90;;;;;;5095075;28;19980;-64
2022/09/25 08:12:23;;;;;;;;;;;10.20;99.90;;;;;;5085339;28;19917;-65
2022/09/25 08:14:49;;;;;;;;;;;10.20;99.90;;;;;;5088502;28;19917;-64
2022/09/25 08:17:14;;;;;;;;;;;10.30;99.90;;;;;;5087723;28;19912;-65
2022/09/25 08:19:40;;;;;;;;;;;10.30;99.90;;;;;;5091181;28;19908;-69
2022/09/25 08:22:06;;;;;;;;;;;10.40;99.90;;;;;;5094105;28;20314;-67
2022/09/25 08:24:31;;;;;;;;;;;10.50;99.90;;;;;;5095871;28;19968;-64
2022/09/25 08:26:57;;;;;;;;;;;10.40;99.90;;;;;;5090508;28;19900;-64
2022/09/25 08:29:23;;;;;;;;;;;10.30;99.90;;;;;;5090979;28;19908;-69
2022/09/25 08:31:50;;;;;;;;;;;10.50;99.90;;;;;;5093908;28;19904;-64
2022/09/25 08:34:16;;;;;;;;;;;10.60;99.90;;;;;;5087450;28;19912;-66
2022/09/25 08:36:42;;;;;;;;;;;10.70;99.90;;;;;;5092550;28;19932;-66
2022/09/25 08:39:08;;;;;;;;;;;10.70;99.90;;;;;;5091103;28;19952;-65
2022/09/25 08:41:44;;;;;;;;;;;10.80;99.90;;;;;;5100586;28;19935;-65
2022/09/25 08:44:19;;;;;;;;;;;10.80;99.90;;;;;;5093898;28;19913;-66
2022/09/25 08:49:38;;;;;;;;;;;11.20;99.90;;;;;;5090659;28;20966;-64
2022/09/25 08:52:07;;;;;;;;;;;11.40;99.90;;;;;;5090936;27;19905;-64
2022/09/25 08:54:33;;;;;;;;;;;11.50;99.90;;;;;;5090693;28;19905;-63
2022/09/25 08:57:33;;;;;;;;;;;11.60;99.90;;;;;;5088518;28;19912;-64
2022/09/25 09:00:19;;;;;;;;;;;11.80;99.90;;;;;;5054535;28;19920;-65
2022/09/25 09:02:49;;;;;;;;;;;11.90;99.90;;;;;;5086106;28;19928;-66
2022/09/25 09:05:17;;;;;;;;;;;12.00;99.90;;;;;;5090384;28;19916;-64
2022/09/25 09:07:45;;;;;;;;;;;12.10;99.90;;;;;;5094047;28;19920;-64
2022/09/25 09:10:26;;;;;;;;;;;12.30;99.90;;;;;;5097892;28;19908;-67
2022/09/25 09:12:55;;;;;;;;;;;12.50;99.90;;;;;;5093154;28;19992;-67
2022/09/25 09:15:28;;;;;;;;;;;12.50;99.90;;;;;;5085609;28;19925;-65
2022/09/25 09:17:55;;;;;;;;;;;12.60;99.90;;;;;;5080219;28;19912;-65
2022/09/25 09:20:33;;;;;;;;;;;12.70;99.90;;;;;;5089824;28;19913;-64
2022/09/25 09:22:59;;;;;;;;;;;12.80;99.90;;;;;;5096478;28;19919;-64
2022/09/25 09:25:51;;;;;;;;;;;12.90;99.90;;;;;;5097235;28;19967;-65
2022/09/25 09:28:19;;;;;;;;;;;13.00;99.90;;;;;;5058278;28;19934;-64
2022/09/25 09:31:00;;;;;;;;;;;13.30;99.90;;;;;;5088810;28;19972;-64
2022/09/25 09:33:26;;;;;;;;;;;13.30;99.90;;;;;;5095590;28;19924;-65
2022/09/25 09:36:06;;;;;;;;;;;13.10;99.90;;;;;;5091389;28;19932;-65
2022/09/25 09:38:41;;;;;;;;;;;13.30;99.90;;;;;;5080816;28;19904;-64
2022/09/25 09:41:07;;;;;;;;;;;13.50;99.90;;;;;;5086132;28;19986;-64
2022/09/25 09:43:35;;;;;;;;;;;13.70;99.90;;;;;;5086955;28;19920;-69
2022/09/25 09:46:07;;;;;;;;;;;13.70;99.90;;;;;;5092046;28;19915;-65
2022/09/25 09:48:38;;;;;;;;;;;13.80;99.90;;;;;;5094138;28;19927;-64
2022/09/25 09:51:33;;;;;;;;;;;14.00;99.90;;;;;;5083414;28;19911;-65
2022/09/25 09:54:20;;;;;;;;;;;14.20;99.90;;;;;;5061391;28;19930;-64
2022/09/25 09:56:48;;;;;;;;;;;14.30;99.90;;;;;;5095448;28;19919;-66
2022/09/25 09:59:16;;;;;;;;;;;14.30;99.90;;;;;;5094035;28;19946;-65
2022/09/25 10:01:43;;;;;;;;;;;14.30;99.90;;;;;;5092477;28;19904;-67
2022/09/25 10:04:10;;;;;;;;;;;14.10;99.90;;;;;;5088878;28;19915;-65
2022/09/25 10:06:37;;;;;;;;;;;14.40;99.90;;;;;;5092963;28;19916;-64
2022/09/25 10:09:04;;;;;;;;;;;14.50;99.90;;;;;;5088424;28;19955;-65
2022/09/25 10:11:31;;;;;;;;;;;14.60;99.90;;;;;;5095256;28;19983;-66
2022/09/25 10:13:58;;;;;;;;;;;14.90;99.90;;;;;;5086939;28;19968;-64
2022/09/25 10:16:24;;;;;;;;;;;15.20;99.90;;;;;;5092188;28;19911;-65
2022/09/25 10:18:59;;;;;;;;;;;15.50;99.90;;;;;;5090920;28;19905;-67
2022/09/25 10:21:37;;;;;;;;;;;15.40;99.90;;;;;;5094266;28;19925;-65
2022/09/25 10:24:03;;;;;;;;;;;15.20;99.90;;;;;;5095627;28;19904;-65
2022/09/25 10:26:29;;;;;;;;;;;15.10;99.90;;;;;;5086994;28;19930;-64
2022/09/25 10:28:59;;;;;;;;;;;15.00;99.90;;;;;;5087085;28;19975;-63
2022/09/25 10:31:44;;;;;;;;;;;15.20;99.90;;;;;;5089242;28;19927;-65
2022/09/25 10:34:16;;;;;;;;;;;15.30;97.50;;;;;;5106147;27;19911;-67
2022/09/25 10:36:43;;;;;;;;;;;15.40;95.90;;;;;;5089893;28;19908;-64
2022/09/25 10:39:28;;;;;;;;;;;15.40;95.30;;;;;;5090688;28;19912;-68
2022/09/25 10:41:54;;;;;;;;;;;15.50;92.80;;;;;;5089318;28;19912;-66
2022/09/25 10:44:34;;;;;;;;;;;15.20;90.80;;;;;;5094355;28;19901;-65
2022/09/25 10:50:11;;;;;;;;;;;15.30;90.40;;;;;;5092164;28;19930;-65
2022/09/25 10:52:49;;;;;;;;;;;15.50;88.20;;;;;;5087529;28;19920;-64
2022/09/25 10:55:27;;;;;;;;;;;15.50;84.50;;;;;;5089284;28;19916;-65
2022/09/25 10:58:13;;;;;;;;;;;15.60;83.70;;;;;;5091284;28;19973;-65
2022/09/25 11:00:52;;;;;;;;;;;15.50;81.40;;;;;;5096520;28;19975;-73
2022/09/25 11:03:21;;;;;;;;;;;15.60;81.90;;;;;;5098878;28;19936;-65
2022/09/25 11:05:49;;;;;;;;;;;15.90;81.50;;;;;;5094224;28;19916;-65
2022/09/25 11:08:15;;;;;;;;;;;15.90;78.40;;;;;;5090829;28;19905;-64
2022/09/25 11:10:52;;;;;;;;;;;16.00;79.00;;;;;;5085983;28;19904;-64
2022/09/25 11:13:25;;;;;;;;;;;16.30;77.20;;;;;;5091463;28;19912;-64
2022/09/25 11:15:52;;;;;;;;;;;16.40;75.90;;;;;;5091486;28;19912;-67
2022/09/25 11:18:30;;;;;;;;;;;16.60;73.70;;;;;;5093488;28;19905;-65
2022/09/25 11:21:05;;;;;;;;;;;16.70;70.90;;;;;;5086848;28;19925;-64
2022/09/25 11:23:44;;;;;;;;;;;16.90;69.90;;;;;;5069546;28;20003;-65
2022/09/25 11:26:18;;;;;;;;;;;17.00;68.00;;;;;;5090981;28;19932;-63
2022/09/25 11:28:48;;;;;;;;;;;17.30;67.30;;;;;;5087872;28;19919;-63
2022/09/25 11:31:22;;;;;;;;;;;17.40;60.70;;;;;;5090230;28;19914;-64
2022/09/25 11:33:51;;;;;;;;;;;17.60;60.30;;;;;;5086525;28;19964;-62
2022/09/25 11:36:23;;;;;;;;;;;17.60;58.50;;;;;;5084125;28;19974;-67
2022/09/25 11:41:53;;;;;;;;;;;17.60;57.90;;;;;;5088611;28;19919;-64
2022/09/25 11:44:26;;;;;;;;;;;17.30;60.70;;;;;;5083492;28;19913;-66
2022/09/25 11:47:14;;;;;;;;;;;17.20;60.50;;;;;;5087557;28;19983;-64
2022/09/25 11:49:40;;;;;;;;;;;17.10;60.60;;;;;;5089109;28;19968;-63
2022/09/25 11:52:24;;;;;;;;;;;17.30;60.20;;;;;;5086708;28;19905;-65
2022/09/25 11:55:09;;;;;;;;;;;17.30;59.50;;;;;;5086761;28;19919;-62
2022/09/25 11:57:44;;;;;;;;;;;17.10;59.20;;;;;;5088898;28;19968;-63
2022/09/25 12:00:28;;;;;;;;;;;17.20;60.30;;;;;;5089812;28;19919;-62
2022/09/25 12:02:53;;;;;;;;;;;17.40;60.70;;;;;;5087679;28;19936;-63
2022/09/25 12:05:54;;;;;;;;;;;17.40;60.60;;;;;;5086821;28;19905;-63
2022/09/25 12:08:26;;;;;;;;;;;17.60;59.40;;;;;;5022294;28;19910;-62
2022/09/25 12:11:07;;;;;;;;;;;17.70;57.30;;;;;;5073229;28;19927;-69
2022/09/25 12:13:44;;;;;;;;;;;17.70;56.20;;;;;;5086047;28;19917;-69
2022/09/25 12:16:13;;;;;;;;;;;17.20;56.80;;;;;;5101007;28;19932;-64
2022/09/25 12:18:54;;;;;;;;;;;17.20;56.00;;;;;;5087177;28;19976;-63
2022/09/25 12:21:22;;;;;;;;;;;17.30;55.80;;;;;;5084092;28;19927;-64
2022/09/25 12:23:56;;;;;;;;;;;17.50;55.30;;;;;;5085181;28;19911;-64
2022/09/25 12:26:42;;;;;;;;;;;17.80;54.30;;;;;;5085094;28;19909;-64
2022/09/25 12:29:20;;;;;;;;;;;17.70;53.90;;;;;;5071898;28;19905;-64
2022/09/25 12:31:51;;;;;;;;;;;17.70;53.10;;;;;;5086765;28;19916;-63
2022/09/25 12:34:36;;;;;;;;;;;17.70;53.10;;;;;;5085523;28;19972;-64
2022/09/25 12:37:11;;;;;;;;;;;17.80;52.20;;;;;;5086285;28;19916;-63
2022/09/25 12:39:41;;;;;;;;;;;17.90;52.00;;;;;;5088199;28;19933;-64
2022/09/25 12:42:16;;;;;;;;;;;17.90;52.30;;;;;;5087076;28;19904;-62
2022/09/25 12:44:42;;;;;;;;;;;18.00;52.70;;;;;;5082917;28;19968;-62
2022/09/25 12:47:11;;;;;;;;;;;18.10;53.40;;;;;;5087347;28;19905;-62
2022/09/25 12:49:39;;;;;;;;;;;18.20;52.70;;;;;;5088491;28;19964;-66
2022/09/25 12:52:10;;;;;;;;;;;18.10;54.60;;;;;;5083247;28;19912;-61
2022/09/25 12:54:44;;;;;;;;;;;18.00;55.20;;;;;;5090412;28;19904;-62
2022/09/25 12:57:12;;;;;;;;;;;17.80;56.30;;;;;;5091183;28;19946;-61
2022/09/25 12:59:44;;;;;;;;;;;17.60;56.30;;;;;;5088949;28;19917;-63
2022/09/25 13:02:23;;;;;;;;;;;17.60;56.40;;;;;;5085987;28;20091;-64
2022/09/25 13:04:54;;;;;;;;;;;17.50;57.40;;;;;;5090126;28;19905;-63
2022/09/25 13:07:23;;;;;;;;;;;17.50;56.80;;;;;;5084715;28;19956;-64
2022/09/25 13:09:49;;;;;;;;;;;17.50;58.10;;;;;;5087383;28;19928;-63
2022/09/25 13:12:15;;;;;;;;;;;17.90;58.10;;;;;;5080928;28;19908;-62
2022/09/25 13:14:45;;;;;;;;;;;18.20;56.20;;;;;;5089000;28;19905;-62
2022/09/25 13:17:11;;;;;;;;;;;18.20;55.60;;;;;;5086136;28;19985;-63
2022/09/25 13:19:37;;;;;;;;;;;18.30;55.70;;;;;;5086186;28;19920;-63
2022/09/25 13:22:09;;;;;;;;;;;18.30;54.50;;;;;;5085691;28;19904;-63
2022/09/25 13:24:41;;;;;;;;;;;18.20;53.50;;;;;;5083737;28;19932;-64
2022/09/25 13:27:09;;;;;;;;;;;18.10;53.00;;;;;;5082885;28;19983;-63
2022/09/25 13:29:37;;;;;;;;;;;18.10;54.00;;;;;;5069390;28;19904;-65
2022/09/25 13:32:03;;;;;;;;;;;17.90;55.10;;;;;;5084552;28;19905;-62
2022/09/25 13:34:32;;;;;;;;;;;17.90;55.00;;;;;;5088251;28;19958;-65
2022/09/25 13:37:02;;;;;;;;;;;18.20;55.70;;;;;;5085866;28;19921;-63
2022/09/25 13:42:28;;;;;;;;;;;18.10;54.90;;;;;;5083707;28;19912;-62
2022/09/25 13:45:13;;;;;;;;;;;17.80;56.30;;;;;;5084076;28;20054;-64
2022/09/25 13:47:43;;;;;;;;;;;17.80;57.10;;;;;;5065485;28;19909;-63
2022/09/25 13:50:09;;;;;;;;;;;17.50;58.10;;;;;;5086885;28;20102;-65
2022/09/25 13:52:37;;;;;;;;;;;17.40;58.80;;;;;;5084037;28;19924;-63
2022/09/25 13:55:12;;;;;;;;;;;17.30;61.00;;;;;;5083767;28;19958;-66
2022/09/25 13:57:54;;;;;;;;;;;17.50;62.80;;;;;;5082925;28;19932;-69
2022/09/25 14:00:21;;;;;;;;;;;17.20;65.10;;;;;;5083973;28;19928;-63
2022/09/25 14:02:46;;;;;;;;;;;17.20;65.50;;;;;;5085692;28;19916;-64
2022/09/25 14:05:15;;;;;;;;;;;17.30;65.80;;;;;;5084172;28;19917;-64
2022/09/25 14:07:41;;;;;;;;;;;17.30;65.30;;;;;;5085114;28;19925;-63
2022/09/25 14:10:09;;;;;;;;;;;17.30;64.90;;;;;;5084168;28;19928;-64
2022/09/25 14:12:41;;;;;;;;;;;17.40;65.50;;;;;;5084441;28;20019;-65
2022/09/25 14:15:17;;;;;;;;;;;17.50;64.30;;;;;;5086920;28;19916;-64
2022/09/25 14:17:43;;;;;;;;;;;17.50;64.00;;;;;;5065626;28;19915;-63
2022/09/25 14:20:27;;;;;;;;;;;17.60;63.70;;;;;;5073715;28;20062;-64
2022/09/25 14:22:54;;;;;;;;;;;17.50;64.10;;;;;;5087874;28;19971;-65
2022/09/25 14:25:26;;;;;;;;;;;17.40;64.50;;;;;;5084537;28;19905;-64
2022/09/25 14:27:52;;;;;;;;;;;17.40;65.10;;;;;;5082529;28;19931;-65
2022/09/25 14:30:18;;;;;;;;;;;17.50;66.20;;;;;;5086032;28;19913;-62
2022/09/25 14:32:53;;;;;;;;;;;17.50;66.70;;;;;;5085921;28;19917;-64
2022/09/25 14:35:27;;;;;;;;;;;17.60;67.00;;;;;;5081869;28;19913;-63
2022/09/25 14:38:06;;;;;;;;;;;17.80;66.20;;;;;;5088634;28;19904;-63
2022/09/25 14:40:36;;;;;;;;;;;17.80;66.70;;;;;;5085409;28;19944;-63
2022/09/25 14:43:12;;;;;;;;;;;17.70;67.10;;;;;;5080558;28;19917;-65
2022/09/25 14:45:37;;;;;;;;;;;17.70;67.80;;;;;;5082014;28;19932;-63
2022/09/25 14:48:05;;;;;;;;;;;17.70;68.10;;;;;;5083654;28;19905;-63
2022/09/25 14:50:35;;;;;;;;;;;17.50;69.30;;;;;;5084776;28;19943;-62
2022/09/25 14:53:06;;;;;;;;;;;17.40;70.50;;;;;;5084487;28;20017;-64
2022/09/25 14:55:38;;;;;;;;;;;17.30;70.60;;;;;;5083623;28;19971;-64